Global Enterprise — 3FCJ6 — position and weather

sailwx.info

Track history (hours):
 
Tides and Currents Weather Stations Pressure Air Temp Water Temp Dewpoint Dewpoint Depression Visibility Wind Speed Wind Dir Waves Ship Positions

Global Enterprise

Last reported at 2016-Feb-03 22:17 UTC. Time now 2016-Feb-10 12:50 UTC.
Position S 20°19' E 118°34'.

Length 290 m; draft 12.2 m.

Type: Ship. MMSI: 356308000.

Date/timePositionNaut miles runAvg speedWind from/ knotsBaromVisibWave heightAir tempDewpointWater temp
2016-Feb-03 22:17S 20°19' E 118°34'1 0.0
2016-Feb-02 18:20S 20°19' E 118°34'0 0.0
2016-Feb-02 16:08S 20°19' E 118°34'0 0.0
2016-Feb-02 10:33S 20°19' E 118°34'8 8.4
2016-Feb-02 09:33S 20°11' E 118°33'5 4.6
2016-Feb-02 08:33S 20°07' E 118°31'0 0.0
2016-Feb-02 07:33S 20°07' E 118°31'0 0.0
2016-Feb-02 06:33S 20°07' E 118°31'0 0.0
2016-Feb-02 05:33S 20°07' E 118°31'0 0.0
2016-Feb-02 04:31S 20°07' E 118°31'0 0.0
2016-Feb-02 03:27S 20°07' E 118°31'0 0.0
2016-Feb-02 02:22S 20°07' E 118°31'0 0.0
2016-Feb-02 01:21S 20°07' E 118°31'0 0.1
2016-Feb-02 00:20S 20°07' E 118°31'0 0.0
2016-Feb-01 23:21S 20°07' E 118°31'0 0.0
2016-Feb-01 22:32S 20°07' E 118°31'0 0.0
2016-Feb-01 09:22S 20°07' E 118°31'0 0.0
2016-Feb-01 08:25S 20°07' E 118°31'0 0.0
2016-Feb-01 07:33S 20°07' E 118°31'0 0.0
2016-Feb-01 06:26S 20°07' E 118°31'0 0.0
2016-Feb-01 05:29S 20°07' E 118°31'  
2016-Jan-27 12:30S 20°07' E 118°31'0 0.1
2016-Jan-27 10:30S 20°07' E 118°31'0 0.1
2016-Jan-27 08:18S 20°07' E 118°31'0 0.1
2016-Jan-27 05:31S 20°07' E 118°31'0 0.0
2016-Jan-27 02:25S 20°07' E 118°31'0 0.0
2016-Jan-26 23:25S 20°07' E 118°31'0 0.1
2016-Jan-26 20:12S 20°06' E 118°31'0 0.0
2016-Jan-26 19:06S 20°07' E 118°31'0 0.2
2016-Jan-26 17:25S 20°07' E 118°31'0 0.0
2016-Jan-26 14:30S 20°07' E 118°31'0 0.0
2016-Jan-26 13:30S 20°07' E 118°31'0 0.0
2016-Jan-26 11:31S 20°07' E 118°31'0 0.0
2016-Jan-26 06:31S 20°07' E 118°31'0 0.0
2016-Jan-25 13:30S 20°07' E 118°31'0 0.0
2016-Jan-25 12:24S 20°07' E 118°31'0 0.0
2016-Jan-25 11:30S 20°07' E 118°31'0 0.1
2016-Jan-25 09:13S 20°06' E 118°31'0 0.1
2016-Jan-25 07:19S 20°06' E 118°31'0 0.1
2016-Jan-25 06:25S 20°06' E 118°31'0 0.1
2016-Jan-25 04:25S 20°07' E 118°31'0 0.0
2016-Jan-25 02:18S 20°07' E 118°31'  
Track history (hours):
 
Tides and Currents Weather Stations Pressure Air Temp Water Temp Dewpoint Dewpoint Depression Visibility Wind Speed Wind Dir Waves Ship Positions

Global Enterprise

Last reported at 2016-Feb-03 22:17 UTC. Time now 2016-Feb-10 12:50 UTC.
Position S 20°19' E 118°34'.

Length 290 m; draft 12.2 m.

Type: Ship. MMSI: 356308000.

Date/timePositionNaut miles runAvg speedWind from/ knotsBaromVisibWave heightAir tempDewpointWater temp
2016-Feb-03 22:17S 20°19' E 118°34'1 0.0
2016-Feb-02 18:20S 20°19' E 118°34'0 0.0
2016-Feb-02 16:08S 20°19' E 118°34'0 0.0
2016-Feb-02 10:33S 20°19' E 118°34'8 8.4
2016-Feb-02 09:33S 20°11' E 118°33'5 4.6
2016-Feb-02 08:33S 20°07' E 118°31'0 0.0
2016-Feb-02 07:33S 20°07' E 118°31'0 0.0
2016-Feb-02 06:33S 20°07' E 118°31'0 0.0
2016-Feb-02 05:33S 20°07' E 118°31'0 0.0
2016-Feb-02 04:31S 20°07' E 118°31'0 0.0
2016-Feb-02 03:27S 20°07' E 118°31'0 0.0
2016-Feb-02 02:22S 20°07' E 118°31'0 0.0
2016-Feb-02 01:21S 20°07' E 118°31'0 0.1
2016-Feb-02 00:20S 20°07' E 118°31'0 0.0
2016-Feb-01 23:21S 20°07' E 118°31'0 0.0
2016-Feb-01 22:32S 20°07' E 118°31'0 0.0
2016-Feb-01 09:22S 20°07' E 118°31'0 0.0
2016-Feb-01 08:25S 20°07' E 118°31'0 0.0
2016-Feb-01 07:33S 20°07' E 118°31'0 0.0
2016-Feb-01 06:26S 20°07' E 118°31'0 0.0
2016-Feb-01 05:29S 20°07' E 118°31'  
2016-Jan-27 12:30S 20°07' E 118°31'0 0.1
2016-Jan-27 10:30S 20°07' E 118°31'0 0.1
2016-Jan-27 08:18S 20°07' E 118°31'0 0.1
2016-Jan-27 05:31S 20°07' E 118°31'0 0.0
2016-Jan-27 02:25S 20°07' E 118°31'0 0.0
2016-Jan-26 23:25S 20°07' E 118°31'0 0.1
2016-Jan-26 20:12S 20°06' E 118°31'0 0.0
2016-Jan-26 19:06S 20°07' E 118°31'0 0.2
2016-Jan-26 17:25S 20°07' E 118°31'0 0.0
2016-Jan-26 14:30S 20°07' E 118°31'0 0.0
2016-Jan-26 13:30S 20°07' E 118°31'0 0.0
2016-Jan-26 11:31S 20°07' E 118°31'0 0.0
2016-Jan-26 06:31S 20°07' E 118°31'0 0.0
2016-Jan-25 13:30S 20°07' E 118°31'0 0.0
2016-Jan-25 12:24S 20°07' E 118°31'0 0.0
2016-Jan-25 11:30S 20°07' E 118°31'0 0.1
2016-Jan-25 09:13S 20°06' E 118°31'0 0.1
2016-Jan-25 07:19S 20°06' E 118°31'0 0.1
2016-Jan-25 06:25S 20°06' E 118°31'0 0.1
2016-Jan-25 04:25S 20°07' E 118°31'0 0.0
2016-Jan-25 02:18S 20°07' E 118°31'  

Dump ship's entire track history